Time;durP1;ratioP1;P1;durP2;ratioP2;P2;SDS_P1;SDS_P2;PMS_P1;PMS_P2;Temp;Humidity;BMP_temperature;BMP_pressure;BME280_temperature;BME280_humidity;BME280_pressure;Samples;Min_cycle;Max_cycle;Signal;HPM_P1;HPM_P2
2022/01/08 00:02:30;0.00;0.00;0.62;0.00;0.00;0.62;1.30;0.80;;;20.40;27.80;;;;;;2241963;62;20362;-62
2022/01/08 00:05:15;0.00;0.00;0.62;0.00;0.00;0.62;1.20;0.70;;;20.40;27.80;;;;;;2241236;62;20394;-62
2022/01/08 00:07:59;0.00;0.00;0.62;0.00;0.00;0.62;1.40;0.83;;;20.40;27.80;;;;;;2241229;62;20667;-62
2022/01/08 00:10:44;0.00;0.00;0.62;0.00;0.00;0.62;1.27;0.60;;;20.40;27.80;;;;;;2242063;62;20365;-61
2022/01/08 00:13:28;0.00;0.00;0.62;0.00;0.00;0.62;1.30;0.70;;;20.40;27.80;;;;;;2241171;62;20701;-61
2022/01/08 00:16:14;0.00;0.00;0.62;0.00;0.00;0.62;1.30;0.90;;;20.40;27.80;;;;;;2241526;62;20589;-61
2022/01/08 00:18:58;0.00;0.00;0.62;0.00;0.00;0.62;1.57;0.80;;;20.40;27.70;;;;;;2241940;62;20597;-61
2022/01/08 00:21:43;0.00;0.00;0.62;0.00;0.00;0.62;1.30;0.80;;;20.40;27.60;;;;;;2241464;62;20435;-61
2022/01/08 00:24:27;0.00;0.00;0.62;0.00;0.00;0.62;1.53;1.00;;;20.40;27.60;;;;;;2241392;62;20609;-61
2022/01/08 00:27:12;0.00;0.00;0.62;0.00;0.00;0.62;1.60;1.10;;;20.40;27.50;;;;;;2241286;62;20742;-61
2022/01/08 00:29:57;0.00;0.00;0.62;0.00;0.00;0.62;1.63;1.10;;;20.40;27.40;;;;;;2241463;62;20362;-61
2022/01/08 00:32:42;0.00;0.00;0.62;0.00;0.00;0.62;1.67;1.30;;;20.40;27.30;;;;;;2241828;62;20347;-61
2022/01/08 00:35:28;0.00;0.00;0.62;0.00;0.00;0.62;1.87;1.33;;;20.30;27.30;;;;;;2241073;62;20385;-61
2022/01/08 00:38:13;0.00;0.00;0.62;0.00;0.00;0.62;1.87;1.40;;;20.30;27.20;;;;;;2241575;62;20648;-61
2022/01/08 00:40:57;0.00;0.00;0.62;0.00;0.00;0.62;2.73;2.00;;;20.30;27.00;;;;;;2241917;62;20771;-61
2022/01/08 00:43:42;0.00;0.00;0.62;0.00;0.00;0.62;1.80;1.57;;;20.30;27.00;;;;;;2240975;62;20382;-61
2022/01/08 00:46:26;0.00;0.00;0.62;0.00;0.00;0.62;1.73;1.50;;;20.20;26.90;;;;;;2241739;62;20358;-61
2022/01/08 00:49:12;0.00;0.00;0.62;0.00;0.00;0.62;2.07;1.50;;;20.20;26.90;;;;;;2241122;62;20407;-61
2022/01/08 00:51:57;0.00;0.00;0.62;0.00;0.00;0.62;2.00;1.50;;;20.20;26.90;;;;;;2241310;62;20582;-61
2022/01/08 00:54:41;0.00;0.00;0.62;0.00;0.00;0.62;1.90;1.50;;;20.20;26.80;;;;;;2241827;62;20635;-61
2022/01/08 00:57:26;0.00;0.00;0.62;0.00;0.00;0.62;2.03;1.43;;;20.10;26.70;;;;;;2240992;62;20394;-61
2022/01/08 01:00:12;0.00;0.00;0.62;0.00;0.00;0.62;1.70;1.27;;;20.10;26.70;;;;;;2241363;62;20748;-61
2022/01/08 01:02:57;0.00;0.00;0.62;0.00;0.00;0.62;2.40;1.80;;;20.10;26.70;;;;;;2241651;62;20406;-61
2022/01/08 01:05:43;0.00;0.00;0.62;0.00;0.00;0.62;2.20;2.00;;;20.10;26.70;;;;;;2240893;62;20433;-61
2022/01/08 01:08:27;0.00;0.00;0.62;0.00;0.00;0.62;2.07;1.63;;;20.00;26.60;;;;;;2241547;62;20426;-61
2022/01/08 01:11:12;0.00;0.00;0.62;0.00;0.00;0.62;2.40;2.20;;;20.00;26.60;;;;;;2240985;62;20628;-61
2022/01/08 01:13:57;0.00;0.00;0.62;0.00;0.00;0.62;2.90;2.00;;;20.00;26.60;;;;;;2241074;62;20385;-61
2022/01/08 01:16:41;0.00;0.00;0.62;0.00;0.00;0.62;2.63;2.43;;;19.90;26.50;;;;;;2241663;62;20402;-61
2022/01/08 01:19:26;0.00;0.00;0.62;0.00;0.00;0.62;2.60;2.00;;;19.90;26.50;;;;;;2241116;62;20407;-61
2022/01/08 01:22:15;0.00;0.00;0.62;0.00;0.00;0.62;2.80;1.90;;;19.80;26.50;;;;;;2241102;62;20406;-61
2022/01/08 01:25:04;0.00;0.00;0.62;0.00;0.00;0.62;2.90;2.57;;;19.80;26.50;;;;;;2241483;62;20398;-61
2022/01/08 01:43:19;0.00;0.00;0.62;0.00;0.00;0.62;3.13;2.47;;;19.60;26.30;;;;;;2241038;62;20425;-61
2022/01/08 01:49:03;0.00;0.00;0.62;0.00;0.00;0.62;2.93;2.50;;;19.60;26.30;;;;;;2241928;62;20358;-61
2022/01/08 01:51:48;0.00;0.00;0.62;0.00;0.00;0.62;3.00;2.73;;;19.60;26.30;;;;;;2241863;62;20414;-61
2022/01/08 01:54:35;0.00;0.00;0.62;0.00;0.00;0.62;3.83;2.50;;;19.60;26.30;;;;;;2242358;62;20406;-61
2022/01/08 01:57:20;0.00;0.00;0.62;0.00;0.00;0.62;2.70;2.20;;;19.60;26.30;;;;;;2241437;62;20366;-61
2022/01/08 02:00:08;0.00;0.00;0.62;0.00;0.00;0.62;2.80;2.20;;;19.60;26.30;;;;;;2242156;62;20366;-61
2022/01/08 02:02:56;0.00;0.00;0.62;0.00;0.00;0.62;3.30;2.70;;;19.50;26.30;;;;;;2241698;62;20455;-61
2022/01/08 02:05:41;0.00;0.00;0.62;0.00;0.00;0.62;3.27;2.47;;;19.50;26.30;;;;;;2241805;62;20782;-61
2022/01/08 02:08:27;0.00;0.00;0.62;0.00;0.00;0.62;2.73;2.53;;;19.50;26.60;;;;;;2242371;62;20363;-61
2022/01/08 02:11:15;0.00;0.00;0.62;0.00;0.00;0.62;3.23;2.80;;;19.50;26.30;;;;;;2241615;62;20410;-61
2022/01/08 02:14:03;0.00;0.00;0.62;0.00;0.00;0.62;3.50;3.20;;;19.50;26.30;;;;;;2241571;62;20385;-61
2022/01/08 02:16:48;0.00;0.00;0.62;0.00;0.00;0.62;2.93;2.67;;;19.50;26.30;;;;;;2242367;62;20402;-61
2022/01/08 02:19:33;0.00;0.00;0.62;0.00;0.00;0.62;2.93;2.63;;;19.50;26.30;;;;;;2241314;62;20434;-61
2022/01/08 02:22:20;0.00;0.00;0.62;0.00;0.00;0.62;4.70;3.10;;;19.50;26.30;;;;;;2242012;62;20366;-61
2022/01/08 02:25:06;0.00;0.00;0.62;0.00;0.00;0.62;3.93;2.60;;;19.50;26.30;;;;;;2241752;62;20394;-61
2022/01/08 02:27:51;0.00;0.00;0.62;0.00;0.00;0.62;3.43;3.07;;;19.50;26.30;;;;;;2241590;62;20405;-61
2022/01/08 02:30:35;0.00;0.00;0.62;0.00;0.00;0.62;3.17;2.73;;;19.50;26.30;;;;;;2242378;62;20633;-61
2022/01/08 02:33:24;0.00;0.00;0.62;0.00;0.00;0.62;3.10;2.80;;;19.40;26.20;;;;;;2241637;62;20418;-61
2022/01/08 02:36:08;0.00;0.00;0.62;0.00;0.00;0.62;3.53;3.23;;;19.40;26.20;;;;;;2241770;62;20398;-61
2022/01/08 02:38:54;0.00;0.00;0.62;0.00;0.00;0.62;3.30;3.00;;;19.40;26.20;;;;;;2242455;62;20393;-62
2022/01/08 02:41:40;0.00;0.00;0.62;0.00;0.00;0.62;3.17;2.87;;;19.40;26.20;;;;;;2241275;62;20362;-61
2022/01/08 02:44:27;0.00;0.00;0.62;0.00;0.00;0.62;4.13;3.23;;;19.40;26.20;;;;;;2241859;61;20398;-61
2022/01/08 02:47:15;0.00;0.00;0.62;0.00;0.00;0.62;4.33;3.00;;;19.40;26.20;;;;;;2241912;62;20373;-61
2022/01/08 02:49:59;0.00;0.00;0.62;0.00;0.00;0.62;3.40;3.10;;;19.40;26.20;;;;;;2241625;62;20371;-61
2022/01/08 02:52:45;0.00;0.00;0.62;0.00;0.00;0.62;3.57;3.27;;;19.30;26.10;;;;;;2241787;62;20362;-61
2022/01/08 02:55:31;0.00;0.00;0.62;0.00;0.00;0.62;4.00;3.20;;;19.30;26.10;;;;;;2241290;62;20414;-61
2022/01/08 02:58:16;0.00;0.00;0.62;0.00;0.00;0.62;3.70;3.10;;;19.30;26.10;;;;;;2241587;62;20406;-61
2022/01/08 03:01:00;0.00;0.00;0.62;0.00;0.00;0.62;4.07;3.07;;;19.30;26.10;;;;;;2242326;62;20410;-61
2022/01/08 03:03:45;0.00;0.00;0.62;0.00;0.00;0.62;2.70;2.40;;;19.20;26.00;;;;;;2241099;62;20382;-61
2022/01/08 03:06:30;0.00;0.00;0.62;0.00;0.00;0.62;3.30;3.00;;;19.20;26.00;;;;;;2241882;62;20745;-61
2022/01/08 03:09:15;0.00;0.00;0.62;0.00;0.00;0.62;2.97;2.67;;;19.20;26.00;;;;;;2242140;62;20480;-61
2022/01/08 03:12:01;0.00;0.00;0.62;0.00;0.00;0.62;5.00;3.30;;;19.20;26.00;;;;;;2241931;62;20366;-61
2022/01/08 03:14:45;0.00;0.00;0.62;0.00;0.00;0.62;3.70;2.90;;;19.20;26.00;;;;;;2242061;62;20379;-61
2022/01/08 03:17:30;0.00;0.00;0.62;0.00;0.00;0.62;4.13;3.50;;;19.20;26.00;;;;;;2241358;62;20414;-61
2022/01/08 03:20:15;0.00;0.00;0.62;0.00;0.00;0.62;3.87;2.90;;;19.10;26.00;;;;;;2241546;62;20631;-61
2022/01/08 03:23:05;0.00;0.00;0.62;0.00;0.00;0.62;2.83;2.60;;;19.20;26.00;;;;;;2241983;62;20366;-61
2022/01/08 03:25:49;0.00;0.00;0.62;0.00;0.00;0.62;3.43;3.13;;;19.20;26.00;;;;;;2241336;62;20390;-61
2022/01/08 03:28:35;0.00;0.00;0.62;0.00;0.00;0.62;3.70;3.00;;;19.20;26.10;;;;;;2241784;62;20366;-61
2022/01/08 03:31:21;0.00;0.00;0.62;0.00;0.00;0.62;3.70;3.40;;;19.20;26.10;;;;;;2241835;62;20365;-61
2022/01/08 03:34:06;0.00;0.00;0.62;0.00;0.00;0.62;6.23;3.97;;;19.10;26.00;;;;;;2241395;62;20381;-60
2022/01/08 03:36:50;0.00;0.00;0.62;0.00;0.00;0.62;4.27;3.10;;;19.10;26.00;;;;;;2241985;62;20354;-61
2022/01/08 03:39:35;0.00;0.00;0.62;0.00;0.00;0.62;3.50;3.20;;;19.10;26.00;;;;;;2241402;62;20648;-61
2022/01/08 03:42:20;0.00;0.00;0.62;0.00;0.00;0.62;4.10;3.60;;;19.00;25.90;;;;;;2241111;62;20359;-61
2022/01/08 03:45:07;0.00;0.00;0.62;0.00;0.00;0.62;4.27;3.30;;;19.00;25.90;;;;;;2242058;62;20425;-61
2022/01/08 03:48:05;0.00;0.00;0.62;0.00;0.00;0.62;3.80;3.03;;;19.00;25.90;;;;;;2241363;62;20379;-61
2022/01/08 03:50:50;0.00;0.00;0.62;0.00;0.00;0.62;3.70;2.93;;;19.00;25.90;;;;;;2241567;62;20689;-61
2022/01/08 03:53:34;0.00;0.00;0.62;0.00;0.00;0.62;3.63;3.23;;;19.00;25.90;;;;;;2241931;62;20421;-61
2022/01/08 03:56:19;0.00;0.00;0.62;0.00;0.00;0.62;4.87;3.33;;;19.00;25.90;;;;;;2241362;61;20661;-61
2022/01/08 03:59:03;0.00;0.00;0.62;0.00;0.00;0.62;3.50;3.20;;;19.00;26.00;;;;;;2241548;62;20362;-61
2022/01/08 04:01:49;0.00;0.00;0.62;0.00;0.00;0.62;3.20;2.90;;;19.00;26.00;;;;;;2241327;62;20370;-61
2022/01/08 04:04:33;0.00;0.00;0.62;0.00;0.00;0.62;4.43;3.00;;;19.00;26.00;;;;;;2241178;62;20430;-61
2022/01/08 04:07:18;0.00;0.00;0.62;0.00;0.00;0.62;3.10;2.60;;;19.00;26.00;;;;;;2242079;62;20382;-61
2022/01/08 04:10:03;0.00;0.00;0.62;0.00;0.00;0.62;5.07;3.60;;;19.00;26.00;;;;;;2241273;62;20362;-61
2022/01/08 04:12:53;0.00;0.00;0.62;0.00;0.00;0.62;3.43;2.90;;;19.00;25.90;;;;;;2241535;62;20434;-61
2022/01/08 04:15:41;0.00;0.00;0.62;0.00;0.00;0.62;3.37;3.00;;;19.00;25.90;;;;;;2241982;62;20399;-61
2022/01/08 04:18:27;0.00;0.00;0.62;0.00;0.00;0.62;3.00;2.70;;;19.00;25.90;;;;;;2241277;62;20367;-61
2022/01/08 04:24:15;0.00;0.00;0.62;0.00;0.00;0.62;4.40;3.13;;;18.90;25.90;;;;;;2241029;62;20414;-61
2022/01/08 04:27:00;0.00;0.00;0.62;0.00;0.00;0.62;4.10;2.80;;;18.90;25.90;;;;;;2241321;62;20434;-61
2022/01/08 04:29:44;0.00;0.00;0.62;0.00;0.00;0.62;3.23;2.90;;;18.90;25.90;;;;;;2242066;62;20381;-61
2022/01/08 04:32:29;0.00;0.00;0.62;0.00;0.00;0.62;3.00;2.70;;;18.90;25.90;;;;;;2240877;62;20414;-61
2022/01/08 04:35:15;0.00;0.00;0.62;0.00;0.00;0.62;2.73;2.40;;;18.90;25.90;;;;;;2241581;62;20381;-61
2022/01/08 04:37:59;0.00;0.00;0.62;0.00;0.00;0.62;4.97;3.13;;;18.90;25.90;;;;;;2241852;62;20366;-61
2022/01/08 04:40:44;0.00;0.00;0.62;0.00;0.00;0.62;4.27;2.93;;;18.90;25.80;;;;;;2241311;62;20731;-61
2022/01/08 04:43:29;0.00;0.00;0.62;0.00;0.00;0.62;2.70;2.50;;;18.90;25.80;;;;;;2241809;62;20721;-61
2022/01/08 04:46:14;0.00;0.00;0.62;0.00;0.00;0.62;4.23;3.50;;;18.90;25.90;;;;;;2241073;62;20394;-61
2022/01/08 04:48:58;0.00;0.00;0.62;0.00;0.00;0.62;3.13;2.83;;;18.80;25.80;;;;;;2241229;62;20450;-61
2022/01/08 04:51:44;0.00;0.00;0.62;0.00;0.00;0.62;3.00;2.53;;;18.80;25.80;;;;;;2241968;62;20377;-61
2022/01/08 04:54:29;0.00;0.00;0.62;0.00;0.00;0.62;3.40;2.77;;;18.80;25.80;;;;;;2240860;62;20475;-61
2022/01/08 04:57:13;0.00;0.00;0.62;0.00;0.00;0.62;2.50;2.30;;;18.80;25.80;;;;;;2241584;62;20402;-61
2022/01/08 04:59:58;0.00;0.00;0.62;0.00;0.00;0.62;3.50;2.47;;;18.80;25.80;;;;;;2241870;62;20791;-61
2022/01/08 05:02:43;0.00;0.00;0.62;0.00;0.00;0.62;2.63;2.43;;;18.80;25.80;;;;;;2241184;62;20370;-61
2022/01/08 05:05:27;0.00;0.00;0.62;0.00;0.00;0.62;3.00;2.37;;;18.80;25.90;;;;;;2241606;62;20450;-61
2022/01/08 05:08:13;0.00;0.00;0.62;0.00;0.00;0.62;2.40;2.20;;;18.80;25.90;;;;;;2240745;62;20445;-61
2022/01/08 05:10:58;0.00;0.00;0.62;0.00;0.00;0.62;2.33;2.10;;;18.80;25.90;;;;;;2240823;62;20480;-61
2022/01/08 05:13:44;0.00;0.00;0.62;0.00;0.00;0.62;3.57;2.83;;;18.80;25.90;;;;;;2241662;62;20378;-61
2022/01/08 05:16:29;0.00;0.00;0.62;0.00;0.00;0.62;2.63;2.30;;;18.80;25.90;;;;;;2240998;62;20354;-61
2022/01/08 05:19:21;0.00;0.00;0.62;0.00;0.00;0.62;2.77;2.33;;;18.80;25.90;;;;;;2241261;62;20749;-61
2022/01/08 05:22:07;0.00;0.00;0.62;0.00;0.00;0.62;5.87;2.53;;;18.70;25.80;;;;;;2241666;62;20395;-61
2022/01/08 05:24:54;0.00;0.00;0.62;0.00;0.00;0.62;3.27;2.97;;;18.80;25.90;;;;;;2240984;62;20441;-61
2022/01/08 05:27:39;0.00;0.00;0.62;0.00;0.00;0.62;2.90;2.50;;;18.80;25.90;;;;;;2241529;62;20407;-62
2022/01/08 05:30:24;0.00;0.00;0.62;0.00;0.00;0.62;3.37;2.53;;;18.80;25.90;;;;;;2241191;62;20575;-61
2022/01/08 05:33:08;0.00;0.00;0.62;0.00;0.00;0.62;2.70;2.50;;;18.80;25.90;;;;;;2241249;62;20451;-61
2022/01/08 05:35:53;0.00;0.00;0.62;0.00;0.00;0.62;3.47;3.17;;;18.70;25.80;;;;;;2241705;62;20406;-61
2022/01/08 05:38:37;0.00;0.00;0.62;0.00;0.00;0.62;3.50;2.93;;;18.70;25.80;;;;;;2241032;62;20378;-61
2022/01/08 05:41:23;0.00;0.00;0.62;0.00;0.00;0.62;3.70;2.50;;;18.70;25.80;;;;;;2241156;62;20358;-61
2022/01/08 05:44:08;0.00;0.00;0.62;0.00;0.00;0.62;3.20;2.57;;;18.70;25.80;;;;;;2241596;62;20385;-61
2022/01/08 05:46:52;0.00;0.00;0.62;0.00;0.00;0.62;3.60;2.67;;;18.70;25.80;;;;;;2241024;62;20605;-61
2022/01/08 05:49:37;0.00;0.00;0.62;0.00;0.00;0.62;3.50;3.03;;;18.70;25.80;;;;;;2241350;62;20362;-61
2022/01/08 05:52:22;0.00;0.00;0.62;0.00;0.00;0.62;4.47;3.50;;;18.70;25.70;;;;;;2240909;62;20393;-61
2022/01/08 05:55:08;0.00;0.00;0.62;0.00;0.00;0.62;3.77;2.60;;;18.70;25.70;;;;;;2240993;62;20383;-61
2022/01/08 05:57:54;0.00;0.00;0.62;0.00;0.00;0.62;3.30;2.73;;;18.70;25.70;;;;;;2241636;62;20730;-61
2022/01/08 06:00:39;0.00;0.00;0.62;0.00;0.00;0.62;3.37;2.57;;;18.70;25.70;;;;;;2241006;62;20382;-61
2022/01/08 06:03:23;0.00;0.00;0.62;0.00;0.00;0.62;3.13;2.47;;;18.70;25.70;;;;;;2240910;62;20367;-61
2022/01/08 06:06:08;0.00;0.00;0.62;0.00;0.00;0.62;3.20;2.90;;;18.70;25.70;;;;;;2241579;62;20385;-61
2022/01/08 06:08:52;0.00;0.00;0.62;0.00;0.00;0.62;3.37;3.00;;;18.70;25.70;;;;;;2240674;62;20484;-61
2022/01/08 06:11:37;0.00;0.00;0.62;0.00;0.00;0.62;3.33;3.03;;;18.70;25.70;;;;;;2241357;62;20358;-61
2022/01/08 06:14:23;0.00;0.00;0.62;0.00;0.00;0.62;3.23;2.47;;;18.60;25.60;;;;;;2241117;62;20415;-61
2022/01/08 06:17:07;0.00;0.00;0.62;0.00;0.00;0.62;4.00;2.87;;;18.60;25.60;;;;;;2240983;62;20367;-61
2022/01/08 06:19:52;0.00;0.00;0.62;0.00;0.00;0.62;3.83;2.70;;;18.60;25.60;;;;;;2242124;61;20738;-61
2022/01/08 06:22:36;0.00;0.00;0.62;0.00;0.00;0.62;3.67;3.00;;;18.60;25.60;;;;;;2241148;62;20649;-61
2022/01/08 06:25:21;0.00;0.00;0.62;0.00;0.00;0.62;3.63;3.00;;;18.60;25.60;;;;;;2241490;62;20445;-61
2022/01/08 06:28:05;0.00;0.00;0.62;0.00;0.00;0.62;4.00;2.77;;;18.60;25.60;;;;;;2242348;62;20414;-61
2022/01/08 06:30:53;0.00;0.00;0.62;0.00;0.00;0.62;3.87;2.70;;;18.60;25.60;;;;;;2241536;62;20402;-61
2022/01/08 06:33:38;0.00;0.00;0.62;0.00;0.00;0.62;3.10;2.73;;;18.50;26.10;;;;;;2241767;62;20382;-62
2022/01/08 06:36:23;0.00;0.00;0.62;0.00;0.00;0.62;6.00;3.60;;;18.50;25.50;;;;;;2242367;62;20382;-61
2022/01/08 06:39:07;0.00;0.00;0.62;0.00;0.00;0.62;4.00;2.63;;;18.50;25.60;;;;;;2241703;62;20395;-61
2022/01/08 06:41:52;0.00;0.00;0.62;0.00;0.00;0.62;3.50;3.10;;;18.50;25.50;;;;;;2242345;62;20487;-61
2022/01/08 06:44:36;0.00;0.00;0.62;0.00;0.00;0.62;3.30;3.00;;;18.50;25.50;;;;;;2241486;62;20414;-61
2022/01/08 06:47:22;0.00;0.00;0.62;0.00;0.00;0.62;4.33;3.00;;;18.50;25.50;;;;;;2241539;62;20746;-61
2022/01/08 06:50:08;0.00;0.00;0.62;0.00;0.00;0.62;3.67;2.77;;;18.50;25.60;;;;;;2242344;62;20366;-61
2022/01/08 06:52:53;0.00;0.00;0.62;0.00;0.00;0.62;4.50;3.40;;;18.50;25.60;;;;;;2241231;62;20602;-61
2022/01/08 06:55:37;0.00;0.00;0.62;0.00;0.00;0.62;4.27;2.90;;;18.40;25.50;;;;;;2241792;62;20382;-61
2022/01/08 06:58:24;0.00;0.00;0.62;0.00;0.00;0.62;4.53;3.20;;;18.40;25.50;;;;;;2242259;62;20358;-61
2022/01/08 07:01:09;0.00;0.00;0.62;0.00;0.00;0.62;5.10;3.80;;;18.40;25.50;;;;;;2241589;62;20362;-61
2022/01/08 07:03:55;0.00;0.00;0.62;0.00;0.00;0.62;5.20;3.00;;;18.40;25.50;;;;;;2242019;62;20402;-61
2022/01/08 07:06:39;0.00;0.00;0.62;0.00;0.00;0.62;3.17;2.87;;;18.40;25.50;;;;;;2240997;62;20382;-61
2022/01/08 07:09:24;0.00;0.00;0.62;0.00;0.00;0.62;3.50;3.20;;;18.40;25.50;;;;;;2241431;62;20398;-61
2022/01/08 07:12:08;0.00;0.00;0.62;0.00;0.00;0.62;4.20;3.13;;;18.30;25.40;;;;;;2242221;62;20357;-62
2022/01/08 07:14:53;0.00;0.00;0.62;0.00;0.00;0.62;4.43;3.07;;;18.30;25.40;;;;;;2241163;62;20419;-61
2022/01/08 07:17:38;0.00;0.00;0.62;0.00;0.00;0.62;3.60;3.17;;;18.30;25.40;;;;;;2241510;62;20446;-61
2022/01/08 07:20:25;0.00;0.00;0.62;0.00;0.00;0.62;4.93;4.00;;;18.30;25.40;;;;;;2242294;62;20428;-61
2022/01/08 07:23:10;0.00;0.00;0.62;0.00;0.00;0.62;4.43;3.30;;;18.30;25.40;;;;;;2240866;62;20366;-61
2022/01/08 07:25:54;0.00;0.00;0.62;0.00;0.00;0.62;4.00;3.40;;;18.30;25.40;;;;;;2241946;62;20430;-61
2022/01/08 07:28:40;0.00;0.00;0.62;0.00;0.00;0.62;4.67;3.50;;;18.20;25.30;;;;;;2241303;62;20394;-61
2022/01/08 07:31:24;0.00;0.00;0.62;0.00;0.00;0.62;4.40;2.93;;;18.20;25.30;;;;;;2240852;62;20431;-61
2022/01/08 07:34:09;0.00;0.00;0.62;0.00;0.00;0.62;3.33;2.77;;;18.20;25.30;;;;;;2242075;62;20446;-61
2022/01/08 07:36:55;0.00;0.00;0.62;0.00;0.00;0.62;2.73;2.53;;;18.20;25.30;;;;;;2241236;62;20839;-61
2022/01/08 07:39:40;0.00;0.00;0.62;0.00;0.00;0.62;3.73;2.60;;;18.20;25.40;;;;;;2241561;62;20479;-61
2022/01/08 07:42:24;0.00;0.00;0.62;0.00;0.00;0.62;4.13;2.63;;;18.20;25.40;;;;;;2241903;62;20390;-61
2022/01/08 07:45:10;0.00;0.00;0.62;0.00;0.00;0.62;4.63;2.90;;;18.20;25.50;;;;;;2241081;62;20603;-61
2022/01/08 07:47:54;0.00;0.00;0.62;0.00;0.00;0.62;2.83;2.43;;;18.10;25.50;;;;;;2241907;62;20415;-61
2022/01/08 07:50:39;0.00;0.00;0.62;0.00;0.00;0.62;3.57;2.80;;;18.20;25.50;;;;;;2241579;62;20357;-61
2022/01/08 07:53:25;0.00;0.00;0.62;0.00;0.00;0.62;4.30;2.67;;;18.20;25.60;;;;;;2241288;62;20479;-60
2022/01/08 07:56:09;0.00;0.00;0.62;0.00;0.00;0.62;4.10;2.60;;;18.20;25.60;;;;;;2242111;62;20425;-60
2022/01/08 07:58:54;0.00;0.00;0.62;0.00;0.00;0.62;4.40;3.30;;;18.20;25.60;;;;;;2241321;62;20646;-60
2022/01/08 08:01:38;0.00;0.00;0.62;0.00;0.00;0.62;3.10;2.77;;;18.20;25.60;;;;;;2241458;62;20374;-60
2022/01/08 08:04:23;0.00;0.00;0.62;0.00;0.00;0.62;3.80;2.77;;;18.20;25.60;;;;;;2241928;62;20406;-60
2022/01/08 08:07:07;0.00;0.00;0.62;0.00;0.00;0.62;4.30;2.60;;;18.20;25.60;;;;;;2241104;62;20606;-62
2022/01/08 08:09:53;0.00;0.00;0.62;0.00;0.00;0.62;2.63;2.30;;;18.20;25.60;;;;;;2241553;62;20365;-62
2022/01/08 08:12:40;0.00;0.00;0.62;0.00;0.00;0.62;3.70;3.00;;;18.20;25.60;;;;;;2241809;62;20366;-61
2022/01/08 08:15:25;0.00;0.00;0.62;0.00;0.00;0.62;4.60;2.53;;;18.20;25.60;;;;;;2241556;62;20425;-61
2022/01/08 08:18:11;0.00;0.00;0.62;0.00;0.00;0.62;3.70;2.90;;;18.20;25.60;;;;;;2241861;62;20752;-61
2022/01/08 08:20:55;0.00;0.00;0.62;0.00;0.00;0.62;3.60;2.73;;;18.20;25.60;;;;;;2241285;62;20369;-61
2022/01/08 08:23:40;0.00;0.00;0.62;0.00;0.00;0.62;3.13;2.83;;;18.20;25.60;;;;;;2240942;62;20749;-61
2022/01/08 08:26:25;0.00;0.00;0.62;0.00;0.00;0.62;3.67;3.03;;;18.20;25.60;;;;;;2241997;62;20393;-61
2022/01/08 08:29:10;0.00;0.00;0.62;0.00;0.00;0.62;4.00;2.90;;;18.20;25.60;;;;;;2241304;62;20362;-61
2022/01/08 08:31:54;0.00;0.00;0.62;0.00;0.00;0.62;3.53;2.60;;;18.20;25.60;;;;;;2241459;62;20371;-61
2022/01/08 08:34:39;0.00;0.00;0.62;0.00;0.00;0.62;3.70;3.10;;;18.20;25.60;;;;;;2242017;62;20390;-62
2022/01/08 08:37:24;0.00;0.00;0.62;0.00;0.00;0.62;4.30;2.70;;;18.20;25.60;;;;;;2240972;62;20418;-61
2022/01/08 08:40:11;0.00;0.00;0.62;0.00;0.00;0.62;4.83;3.70;;;18.10;25.60;;;;;;2473725;54;20645;-62
2022/01/08 08:42:57;0.00;0.00;0.62;0.00;0.00;0.62;3.30;3.00;;;18.20;25.70;;;;;;2241317;62;20362;-61
2022/01/08 08:45:41;0.00;0.00;0.62;0.00;0.00;0.62;3.60;3.30;;;18.20;25.70;;;;;;2241196;62;20704;-62
2022/01/08 08:48:26;0.00;0.00;0.62;0.00;0.00;0.62;4.20;3.20;;;18.20;25.70;;;;;;2242225;62;20727;-61
2022/01/08 08:51:11;0.00;0.00;0.62;0.00;0.00;0.62;4.20;3.30;;;18.20;25.70;;;;;;2241334;62;20358;-61
2022/01/08 08:53:55;0.00;0.00;0.62;0.00;0.00;0.62;3.90;3.13;;;18.20;25.70;;;;;;2241265;62;20389;-61
2022/01/08 08:56:42;0.00;0.00;0.62;0.00;0.00;0.62;4.50;3.70;;;18.20;25.70;;;;;;2241913;62;20447;-61
2022/01/08 08:59:28;0.00;0.00;0.62;0.00;0.00;0.62;5.10;4.53;;;18.20;25.70;;;;;;2240825;62;20362;-61
2022/01/08 09:02:12;0.00;0.00;0.62;0.00;0.00;0.62;5.90;4.50;;;18.10;25.50;;;;;;2241351;62;20406;-61
2022/01/08 09:04:57;0.00;0.00;0.62;0.00;0.00;0.62;6.10;4.10;;;18.10;25.40;;;;;;2241184;62;20449;-61
2022/01/08 09:07:42;0.00;0.00;0.62;0.00;0.00;0.62;4.20;3.17;;;18.10;25.50;;;;;;2241086;62;20574;-61
2022/01/08 09:10:27;0.00;0.00;0.62;0.00;0.00;0.62;3.70;2.93;;;18.10;25.60;;;;;;2241933;62;20407;-62
2022/01/08 09:13:11;0.00;0.00;0.62;0.00;0.00;0.62;3.17;2.40;;;18.10;25.70;;;;;;2243786;56;20538;-61
2022/01/08 09:15:57;0.00;0.00;0.62;0.00;0.00;0.62;3.50;2.57;;;18.10;25.80;;;;;;2241255;62;20432;-61
2022/01/08 09:18:43;0.00;0.00;0.62;0.00;0.00;0.62;3.40;2.60;;;18.20;25.90;;;;;;2241713;62;20366;-60
2022/01/08 09:21:28;0.00;0.00;0.62;0.00;0.00;0.62;2.87;1.97;;;18.20;26.00;;;;;;2241144;62;20504;-60
2022/01/08 09:24:14;0.00;0.00;0.62;0.00;0.00;0.62;2.50;1.60;;;18.20;26.00;;;;;;2241407;62;20381;-61
2022/01/08 09:26:59;0.00;0.00;0.62;0.00;0.00;0.62;3.73;2.70;;;18.20;26.10;;;;;;2240919;62;20366;-62
2022/01/08 09:29:44;0.00;0.00;0.62;0.00;0.00;0.62;3.10;2.00;;;18.20;26.10;;;;;;2241035;62;20491;-62
2022/01/08 09:32:30;0.00;0.00;0.62;0.00;0.00;0.62;2.90;2.00;;;18.30;26.20;;;;;;2241346;62;20398;-61
2022/01/08 09:35:17;0.00;0.00;0.62;0.00;0.00;0.62;4.33;1.83;;;18.30;26.20;;;;;;2240837;62;20378;-62
2022/01/08 09:38:01;0.00;0.00;0.62;0.00;0.00;0.62;2.40;1.87;;;18.40;26.30;;;;;;2241169;62;20497;-62
2022/01/08 09:40:46;0.00;0.00;0.62;0.00;0.00;0.62;2.80;1.80;;;18.40;26.30;;;;;;2241650;62;20363;-62
2022/01/08 09:43:32;0.00;0.00;0.62;0.00;0.00;0.62;2.53;2.17;;;18.40;26.30;;;;;;2240558;62;20367;-63
2022/01/08 09:46:19;0.00;0.00;0.62;0.00;0.00;0.62;2.03;1.47;;;18.40;26.30;;;;;;2241478;62;20749;-62
2022/01/08 09:49:05;0.00;0.00;0.62;0.00;0.00;0.62;1.93;1.33;;;18.50;26.30;;;;;;2241299;62;20580;-61
2022/01/08 09:51:50;0.00;0.00;0.62;0.00;0.00;0.62;6.83;2.13;;;18.50;26.30;;;;;;2241147;62;20378;-65
2022/01/08 09:54:35;0.00;0.00;0.62;0.00;0.00;0.62;3.17;2.47;;;18.50;26.30;;;;;;2242040;62;20382;-62
2022/01/08 09:57:20;0.00;0.00;0.62;0.00;0.00;0.62;4.53;1.90;;;18.60;26.50;;;;;;2241536;62;20443;-62
2022/01/08 10:00:12;0.00;0.00;0.62;0.00;0.00;0.62;6.40;2.20;;;18.60;26.50;;;;;;2241893;62;20445;-61
2022/01/08 10:03:14;0.00;0.00;0.62;0.00;0.00;0.62;2.90;1.93;;;18.60;26.50;;;;;;2242283;62;20354;-61
2022/01/08 10:06:00;0.00;0.00;0.62;0.00;0.00;0.62;2.80;1.77;;;18.70;26.60;;;;;;2241865;62;20461;-61
2022/01/08 10:08:46;0.00;0.00;0.62;0.00;0.00;0.62;3.00;2.07;;;18.70;26.60;;;;;;2242045;62;20494;-60
2022/01/08 10:11:32;0.00;0.00;0.62;0.00;0.00;0.62;2.03;1.23;;;18.70;26.60;;;;;;2241526;62;20587;-61
2022/01/08 10:14:28;0.00;0.00;0.62;0.00;0.00;0.62;1.57;1.20;;;18.80;26.60;;;;;;2241602;62;20604;-61
2022/01/08 10:17:16;0.00;0.00;0.62;0.00;0.00;0.62;4.20;1.57;;;18.80;26.60;;;;;;2241930;62;20749;-61
2022/01/08 10:20:01;0.00;0.00;0.62;0.00;0.00;0.62;2.33;1.70;;;18.90;26.60;;;;;;2241622;62;20375;-61
2022/01/08 10:22:57;0.00;0.00;0.62;0.00;0.00;0.62;2.40;1.80;;;18.90;26.70;;;;;;2241829;62;20358;-60
2022/01/08 10:25:55;0.00;0.00;0.62;0.00;0.00;0.62;1.80;1.60;;;18.90;26.70;;;;;;2241757;62;20406;-62
2022/01/08 10:28:43;0.00;0.00;0.62;0.00;0.00;0.62;2.70;1.80;;;19.00;26.70;;;;;;2241872;62;20452;-62
2022/01/08 10:31:29;0.00;0.00;0.62;0.00;0.00;0.62;2.83;2.10;;;19.00;26.70;;;;;;2242331;62;20435;-62
2022/01/08 10:34:17;0.00;0.00;0.62;0.00;0.00;0.62;1.70;1.30;;;19.00;26.70;;;;;;2241301;62;20458;-62
2022/01/08 10:37:05;0.00;0.00;0.62;0.00;0.00;0.62;2.10;1.33;;;19.10;26.80;;;;;;2241610;62;20359;-62
2022/01/08 10:39:55;0.00;0.00;0.62;0.00;0.00;0.62;2.27;1.70;;;19.10;26.70;;;;;;2242218;62;20390;-61
2022/01/08 10:42:40;0.00;0.00;0.62;0.00;0.00;0.62;1.90;1.50;;;19.20;26.80;;;;;;2241075;62;20367;-62
2022/01/08 10:45:25;0.00;0.00;0.62;0.00;0.00;0.62;2.00;1.63;;;19.20;26.80;;;;;;2241788;62;20426;-62
2022/01/08 10:48:10;0.00;0.00;0.62;0.00;0.00;0.62;2.17;1.70;;;19.20;26.80;;;;;;2244149;61;20387;-62
2022/01/08 10:51:09;0.00;0.00;0.62;0.00;0.00;0.62;2.40;1.70;;;19.30;26.90;;;;;;2241824;62;20657;-62
2022/01/08 10:54:09;0.00;0.00;0.62;0.00;0.00;0.62;2.37;1.67;;;19.30;26.90;;;;;;2242075;62;20596;-61
2022/01/08 10:57:01;0.00;0.00;0.62;0.00;0.00;0.62;1.70;1.40;;;19.40;26.90;;;;;;2241468;62;20359;-61
2022/01/08 10:59:55;0.00;0.00;0.62;0.00;0.00;0.62;2.83;1.50;;;19.40;26.90;;;;;;2241649;62;20359;-61
2022/01/08 11:02:41;0.00;0.00;0.62;0.00;0.00;0.62;2.37;1.47;;;19.50;27.00;;;;;;2241771;62;20358;-61
2022/01/08 11:05:27;0.00;0.00;0.62;0.00;0.00;0.62;2.23;1.87;;;19.50;27.00;;;;;;2241508;62;20463;-61
2022/01/08 11:08:13;0.00;0.00;0.62;0.00;0.00;0.62;2.47;1.40;;;19.50;26.90;;;;;;2241789;62;20758;-61
2022/01/08 11:10:58;0.00;0.00;0.62;0.00;0.00;0.62;2.43;1.60;;;19.60;27.00;;;;;;2241496;62;20749;-61
2022/01/08 11:13:44;0.00;0.00;0.62;0.00;0.00;0.62;2.63;1.67;;;19.60;26.90;;;;;;2241150;62;20418;-60
2022/01/08 11:16:29;0.00;0.00;0.62;0.00;0.00;0.62;3.40;1.90;;;19.70;26.80;;;;;;2241916;62;20363;-60